Time;durP1;ratioP1;P1;durP2;ratioP2;P2;SDS_P1;SDS_P2;PMS_P1;PMS_P2;Temp;Humidity;BMP_temperature;BMP_pressure;BME280_temperature;BME280_humidity;BME280_pressure;Samples;Min_cycle;Max_cycle;Signal;HPM_P1;HPM_P2
2022/05/14 00:33:11;;;;;;;12.63;3.90;;;;;;;;;;5957225;24;20205;-89
2022/05/14 00:39:53;;;;;;;13.10;3.75;;;;;;;;;;5971894;23;20042;-91
2022/05/14 00:42:22;;;;;;;10.15;3.67;;;;;;;;;;5950823;23;20016;-90
2022/05/14 00:44:58;;;;;;;17.05;4.30;;;;;;;;;;6008588;23;20516;-89
2022/05/14 00:47:30;;;;;;;13.63;4.30;;;;;;;;;;6060304;23;20010;-91
2022/05/14 00:50:02;;;;;;;;;;;;;;;;;;6096998;23;20018;-91
2022/05/14 00:52:41;;;;;;;15.18;4.40;;;;;;;;;;6096846;23;19924;-90
2022/05/14 00:55:16;;;;;;;12.70;3.58;;;;;;;;;;6096803;23;20010;-89
2022/05/14 00:58:08;;;;;;;13.90;4.10;;;;;;;;;;6125112;23;20121;-90
2022/05/14 01:00:47;;;;;;;14.13;4.35;;;;;;;;;;6099486;23;20403;-91
2022/05/14 01:03:25;;;;;;;15.52;4.68;;;;;;;;;;6096863;23;20010;-89
2022/05/14 01:06:07;;;;;;;12.98;3.67;;;;;;;;;;6121141;23;20014;-89
2022/05/14 01:08:34;;;;;;;14.70;4.43;;;;;;;;;;6120987;23;20022;-93
2022/05/14 01:11:03;;;;;;;21.48;4.20;;;;;;;;;;6123911;23;20012;-90
2022/05/14 01:13:31;;;;;;;17.65;4.50;;;;;;;;;;6097102;23;20013;-91
2022/05/14 01:16:02;;;;;;;17.52;4.53;;;;;;;;;;6098594;23;20014;-91
2022/05/14 01:18:49;;;;;;;15.30;4.25;;;;;;;;;;6125095;23;20013;-91
2022/05/14 01:21:24;;;;;;;15.88;4.30;;;;;;;;;;6074048;23;20017;-91
2022/05/14 01:26:59;;;;;;;13.82;3.90;;;;;;;;;;6122458;23;20018;-92
2022/05/14 01:29:26;;;;;;;22.35;4.82;;;;;;;;;;6097766;23;20022;-92
2022/05/14 01:31:54;;;;;;;16.33;3.97;;;;;;;;;;6098272;23;20028;-91
2022/05/14 01:34:21;;;;;;;14.80;4.13;;;;;;;;;;6098214;23;20024;-90
2022/05/14 01:36:53;;;;;;;16.30;4.68;;;;;;;;;;6099140;23;20466;-91
2022/05/14 01:39:23;;;;;;;17.08;4.68;;;;;;;;;;6098737;23;20013;-89
2022/05/14 01:41:55;;;;;;;15.32;4.30;;;;;;;;;;6098972;23;20016;-90
2022/05/14 01:44:24;;;;;;;13.95;4.10;;;;;;;;;;6099335;23;20076;-89
2022/05/14 01:46:53;;;;;;;15.40;4.60;;;;;;;;;;6074484;23;20091;-90
2022/05/14 01:49:20;;;;;;;15.43;4.40;;;;;;;;;;6097916;23;20017;-91
2022/05/14 01:51:46;;;;;;;20.52;4.55;;;;;;;;;;6074404;23;20044;-90
2022/05/14 01:54:12;;;;;;;18.13;4.85;;;;;;;;;;6097167;23;20018;-91
2022/05/14 01:56:39;;;;;;;17.33;4.75;;;;;;;;;;6098627;23;20048;-91
2022/05/14 01:59:15;;;;;;;14.77;4.50;;;;;;;;;;6099864;23;20021;-90
2022/05/14 06:45:55;;;;;;;29.13;7.13;;;;;;;;;;6180306;23;20108;-89
2022/05/14 06:52:17;;;;;;;32.80;7.57;;;;;;;;;;6181480;23;20635;-91
2022/05/14 06:59:05;;;;;;;27.95;6.38;;;;;;;;;;6142673;23;20755;-89
2022/05/14 07:02:13;;;;;;;23.33;5.75;;;13.80;99.90;;;;;;6122503;23;20027;-90
2022/05/14 07:07:34;;;;;;;27.10;6.20;;;;;;;;;;6152650;23;20017;-90
2022/05/14 07:10:02;;;;;;;33.80;6.82;;;15.40;99.90;;;;;;6127169;23;20020;-86
2022/05/14 07:12:29;;;;;;;27.30;6.15;;;15.80;99.90;;;;;;6103864;23;20545;-89
2022/05/14 07:14:54;;;;;;;27.63;6.65;;;15.80;99.90;;;;;;6102849;23;20013;-88
2022/05/14 07:17:20;;;;;;;31.83;5.82;;;15.70;99.90;;;;;;6079060;23;20023;-87
2022/05/14 07:19:49;;;;;;;28.55;5.38;;;15.70;99.90;;;;;;6075897;23;20190;-88
2022/05/14 07:22:22;;;;;;;29.13;6.05;;;;;;;;;;6100301;23;20024;-89
2022/05/14 07:25:08;;;;;;;33.28;6.05;;;;;;;;;;6125356;23;20834;-89
2022/05/14 07:27:35;;;;;;;29.10;5.90;;;;;;;;;;6127150;23;20009;-90
2022/05/14 07:30:06;;;;;;;27.95;5.85;;;;;;;;;;6102000;23;20021;-91
2022/05/14 07:32:32;;;;;;;20.73;4.95;;;;;;;;;;6103481;23;20056;-89
2022/05/14 07:34:58;;;;;;;27.45;5.65;;;;;;;;;;6124713;23;20131;-91
2022/05/14 07:37:27;;;;;;;24.70;5.53;;;;;;;;;;6101188;23;20092;-88
2022/05/14 07:39:59;;;;;;;24.23;5.57;;;;;;;;;;6126483;23;20013;-86
2022/05/14 07:42:28;;;;;;;26.67;5.47;;;;;;;;;;6126765;23;20013;-86
2022/05/14 07:44:56;;;;;;;30.90;5.55;;;;;;;;;;6127439;23;20485;-88
2022/05/14 07:47:23;;;;;;;26.83;5.75;;;;;;;;;;6128059;23;20044;-87
2022/05/14 07:49:59;;;;;;;23.83;5.32;;;15.70;99.90;;;;;;6104201;23;20013;-89
2022/05/14 07:52:25;;;;;;;26.98;6.32;;;16.60;99.90;;;;;;6103961;23;20016;-88
2022/05/14 07:54:53;;;;;;;29.38;5.95;;;16.70;99.90;;;;;;6127647;23;20073;-88
2022/05/14 07:57:24;;;;;;;32.42;5.60;;;16.70;99.90;;;;;;6080324;23;20031;-91
2022/05/14 07:59:51;;;;;;;25.07;5.80;;;;;;;;;;6128691;23;20024;-88
2022/05/14 08:02:35;;;;;;;30.00;5.22;;;;;;;;;;6128511;23;20009;-91
2022/05/14 08:05:30;;;;;;;24.15;5.20;;;;;;;;;;6129462;23;20017;-88
2022/05/14 08:07:59;;;;;;;24.02;5.80;;;16.70;99.90;;;;;;6118144;23;20358;-87
2022/05/14 08:10:25;;;;;;;23.20;4.70;;;;;;;;;;6103171;23;20024;-89
2022/05/14 08:13:14;;;;;;;27.48;5.18;;;;;;;;;;6128990;23;20012;-91
2022/05/14 08:15:41;;;;;;;30.25;5.38;;;;;;;;;;6128605;23;20021;-87
2022/05/14 08:18:07;;;;;;;30.10;6.22;;;;;;;;;;6104041;23;20524;-89
2022/05/14 08:20:36;;;;;;;24.73;5.45;;;;;;;;;;6103079;23;20076;-89
2022/05/14 08:25:50;;;;;;;26.65;5.13;;;;;;;;;;6152635;23;20013;-90
2022/05/14 08:28:40;;;;;;;23.90;5.32;;;;;;;;;;6128442;23;20060;-87
2022/05/14 08:31:23;;;;;;;;;;;;;;;;;;;;;
2022/05/14 08:34:22;;;;;;;29.55;5.32;;;;;;;;;;6151232;23;20084;-89
2022/05/14 08:37:00;;;;;;;27.27;5.80;;;;;;;;;;6127445;23;20017;-89
2022/05/14 08:39:40;;;;;;;28.38;5.65;;;;;;;;;;6151742;23;20364;-89
2022/05/14 08:42:17;;;;;;;29.33;5.75;;;;;;;;;;6153317;23;20009;-91
2022/05/14 08:44:45;;;;;;;29.08;6.82;;;;;;;;;;6154054;23;20079;-89
2022/05/14 08:47:25;;;;;;;27.27;5.63;;;;;;;;;;6152882;23;20013;-88
2022/05/14 08:49:53;;;;;;;29.58;5.75;;;;;;;;;;6152709;23;20120;-88
2022/05/14 08:52:29;;;;;;;23.95;5.70;;;;;;;;;;6129155;23;20317;-87
2022/05/14 08:54:58;;;;;;;27.92;5.93;;;;;;;;;;6152569;23;20021;-87
2022/05/14 08:57:33;;;;;;;22.48;5.68;;;;;;;;;;6155104;23;20075;-89
2022/05/14 09:00:03;;;;;;;32.83;6.18;;;;;;;;;;6163611;23;20024;-90
2022/05/14 09:02:36;;;;;;;25.77;5.28;;;;;;;;;;6183148;23;20009;-92
2022/05/14 09:05:05;;;;;;;29.65;5.25;;;;;;;;;;6171313;23;20522;-88
2022/05/14 09:07:31;;;;;;;23.63;5.00;;;;;;;;;;6152820;23;20024;-87
2022/05/14 09:09:58;;;;;;;27.85;6.00;;;16.80;99.90;;;;;;6153056;23;20012;-90
2022/05/14 09:12:33;;;;;;;24.48;5.25;;;17.50;99.90;;;;;;6128701;23;20009;-88
2022/05/14 09:15:14;;;;;;;28.30;5.65;;;17.60;99.90;;;;;;6152864;23;20017;-91
2022/05/14 09:17:40;;;;;;;24.85;5.97;;;17.50;99.90;;;;;;6153846;23;20434;-90
2022/05/14 09:20:07;;;;;;;22.50;5.68;;;17.60;99.90;;;;;;6128548;23;20013;-90
2022/05/14 09:22:44;;;;;;;23.73;5.25;;;17.50;99.90;;;;;;6128905;23;20499;-88
2022/05/14 09:25:16;;;;;;;28.33;5.95;;;;;;;;;;6149919;23;20378;-88
2022/05/14 09:28:00;;;;;;;22.60;5.07;;;17.60;99.90;;;;;;6146681;23;20009;-90
2022/05/14 09:30:50;;;;;;;42.47;7.10;;;;;;;;;;6121604;23;20359;-89
2022/05/14 09:33:28;;;;;;;30.27;6.13;;;;;;;;;;6122057;23;20104;-88
2022/05/14 09:35:56;;;;;;;29.45;6.07;;;;;;;;;;6123218;23;20010;-88
2022/05/14 09:38:42;;;;;;;28.08;5.22;;;;;;;;;;6122911;23;20022;-90
2022/05/14 09:41:32;;;;;;;27.25;5.35;;;;;;;;;;6124142;23;20328;-89
2022/05/14 09:44:01;;;;;;;26.92;5.28;;;;;;;;;;6123269;23;20096;-87
2022/05/14 09:46:32;;;;;;;25.70;5.05;;;;;;;;;;6075858;23;20109;-89
2022/05/14 09:49:18;;;;;;;27.20;5.85;;;;;;;;;;6123880;23;20013;-90
2022/05/14 09:51:50;;;;;;;23.52;5.78;;;;;;;;;;6124086;23;20160;-90
2022/05/14 09:54:30;;;;;;;25.83;5.70;;;;;;;;;;6123015;23;20671;-90
2022/05/14 09:57:14;;;;;;;18.75;4.10;;;;;;;;;;6123361;23;20040;-89
2022/05/14 10:00:13;;;;;;;24.30;5.40;;;17.70;99.90;;;;;;6155225;23;20056;-90
2022/05/14 10:03:33;;;;;;;24.80;5.00;;;18.40;99.90;;;;;;6178881;23;20009;-90
2022/05/14 10:06:02;;;;;;;21.15;5.03;;;;;;;;;;6146248;23;20021;-89
2022/05/14 10:08:54;;;;;;;22.42;4.85;;;;;;;;;;6153473;23;20542;-89
2022/05/14 10:11:29;;;;;;;30.83;4.80;;;;;;;;;;6153094;23;20028;-89
2022/05/14 10:14:02;;;;;;;24.30;5.00;;;;;;;;;;6154777;23;20320;-90
2022/05/14 10:16:58;;;;;;;21.13;5.25;;;;;;;;;;6154696;23;20009;-91
2022/05/14 10:19:48;;;;;;;23.17;5.13;;;;;;;;;;6154233;23;20044;-89
2022/05/14 10:26:44;;;;;;;24.00;4.65;;;;;;;;;;6154185;23;20013;-87
2022/05/14 10:28:36;;;;;;;26.63;5.93;;;;;;;;;;6177416;23;20021;-90
2022/05/14 10:31:25;;;;;;;24.17;5.28;;;;;;;;;;6152144;23;20048;-88
2022/05/14 10:33:55;;;;;;;22.25;5.07;;;;;;;;;;6146203;23;20027;-90
2022/05/14 10:40:01;;;;;;;23.35;4.60;;;;;;;;;;6162562;23;20422;-92
2022/05/14 10:43:07;;;;;;;24.98;4.95;;;;;;;;;;6178261;23;20024;-88
2022/05/14 10:45:44;;;;;;;27.20;5.53;;;;;;;;;;6014389;23;20101;-89
2022/05/14 10:48:30;;;;;;;22.47;4.80;;;;;;;;;;6145500;23;20096;-90
2022/05/14 10:50:56;;;;;;;19.08;4.72;;;;;;;;;;6153983;23;20268;-87
2022/05/14 10:53:22;;;;;;;25.15;4.88;;;;;;;;;;6153061;23;20013;-90
2022/05/14 10:56:06;;;;;;;27.58;5.03;;;;;;;;;;6153507;23;20013;-90
2022/05/14 10:58:45;;;;;;;22.55;4.50;;;;;;;;;;6154169;23;20641;-86
2022/05/14 11:01:41;;;;;;;22.48;4.88;;;;;;;;;;6155267;23;20477;-89
2022/05/14 11:04:19;;;;;;;20.88;4.75;;;;;;;;;;6154714;23;20013;-89
2022/05/14 11:07:08;;;;;;;23.15;5.10;;;;;;;;;;6154727;23;20044;-90
2022/05/14 11:09:49;;;;;;;25.42;4.80;;;;;;;;;;6152881;23;20143;-86
2022/05/14 11:12:24;;;;;;;20.75;5.20;;;18.50;99.90;;;;;;6153946;23;20103;-91
2022/05/14 11:14:51;;;;;;;23.42;4.43;;;;;;;;;;6153420;23;20020;-89
2022/05/14 11:17:22;;;;;;;26.65;4.90;;;;;;;;;;6151034;23;20511;-88
2022/05/14 11:19:49;;;;;;;18.50;4.30;;;;;;;;;;6152292;23;20020;-89
2022/05/14 11:22:21;;;;;;;18.02;4.63;;;;;;;;;;6128847;23;20071;-89
2022/05/14 11:24:54;;;;;;;25.52;5.45;;;;;;;;;;6154136;23;20389;-87
2022/05/14 11:27:32;;;;;;;;;;;;;;;;;;6130063;23;20445;-89
2022/05/14 11:30:10;;;;;;;18.83;4.32;;;;;;;;;;6153299;23;20330;-89
2022/05/14 11:32:50;;;;;;;18.23;4.47;;;;;;;;;;6152242;23;20013;-89
2022/05/14 11:35:23;;;;;;;20.70;4.65;;;;;;;;;;6151092;23;20017;-90
2022/05/14 11:37:57;;;;;;;23.13;5.15;;;;;;;;;;6152727;23;20087;-90
2022/05/14 11:40:29;;;;;;;24.55;4.68;;;;;;;;;;6130143;23;20017;-92
2022/05/14 11:43:14;;;;;;;17.30;4.32;;;;;;;;;;6128315;23;20024;-90
2022/05/14 11:46:17;;;;;;;20.30;5.05;;;;;;;;;;6176134;23;20403;-89
2022/05/14 11:49:04;;;;;;;16.80;4.78;;;;;;;;;;6127219;23;20521;-92
2022/05/14 11:51:49;;;;;;;24.92;4.97;;;;;;;;;;6153190;23;20031;-90
2022/05/14 11:54:18;;;;;;;20.60;5.35;;;;;;;;;;6150477;23;20016;-89
2022/05/14 11:56:50;;;;;;;24.17;5.32;;;;;;;;;;6153383;23;20044;-87
2022/05/14 12:06:21;;;;;;;21.73;4.55;;;;;;;;;;6148282;23;20020;-90
2022/05/14 12:58:50;;;;;;;24.48;5.50;;;;;;;;;;6088651;23;21150;-89
2022/05/14 13:01:18;;;;;;;24.17;4.63;;;;;;;;;;6115553;23;20759;-89
2022/05/14 13:03:53;;;;;;;21.80;5.22;;;;;;;;;;6176683;23;20020;-90
2022/05/14 13:06:22;;;;;;;22.70;4.90;;;;;;;;;;6156611;23;20028;-89
2022/05/14 13:08:50;;;;;;;23.40;5.00;;;;;;;;;;6158715;23;20024;-92
2022/05/14 13:40:55;;;;;;;21.80;5.07;;;;;;;;;;6089808;23;20228;-89
2022/05/14 13:43:39;;;;;;;21.70;4.53;;;;;;;;;;6071005;23;20020;-87
2022/05/14 13:46:11;;;;;;;23.58;5.53;;;;;;;;;;6098431;23;20017;-88
2022/05/14 13:48:39;;;;;;;22.15;4.90;;;;;;;;;;6134944;23;20021;-88
2022/05/14 13:51:08;;;;;;;23.60;5.43;;;;;;;;;;6135118;23;20037;-91
2022/05/14 13:53:39;;;;;;;20.92;5.15;;;;;;;;;;6139466;23;20012;-86
2022/05/14 13:56:29;;;;;;;21.70;5.55;;;;;;;;;;6132004;23;20118;-88
2022/05/14 13:59:00;;;;;;;24.48;4.70;;;;;;;;;;6134376;23;20337;-90
2022/05/14 14:01:33;;;;;;;22.85;5.18;;;;;;;;;;6131247;23;20044;-90
2022/05/14 14:03:59;;;;;;;19.83;4.97;;;;;;;;;;6130608;23;20017;-88
2022/05/14 14:06:33;;;;;;;19.90;5.00;;;;;;;;;;6134482;23;20339;-88
2022/05/14 14:08:59;;;;;;;23.17;4.70;;;;;;;;;;6128483;23;20021;-86
2022/05/14 14:11:28;;;;;;;21.70;5.03;;;;;;;;;;6128879;23;20365;-88
2022/05/14 14:13:54;;;;;;;20.40;4.82;;;;;;;;;;6132872;23;20103;-91
2022/05/14 14:16:20;;;;;;;25.48;4.78;;;;;;;;;;6132441;23;20025;-89
2022/05/14 14:18:47;;;;;;;26.33;5.35;;;;;;;;;;6132564;23;20013;-89
2022/05/14 14:21:16;;;;;;;25.67;5.53;;;;;;;;;;6128597;23;20032;-90
2022/05/14 14:23:45;;;;;;;22.17;4.55;;;;;;;;;;6131288;23;20017;-87
2022/05/14 14:26:11;;;;;;;24.02;5.00;;;;;;;;;;6131740;23;20024;-89
2022/05/14 14:28:38;;;;;;;22.88;5.55;;;;;;;;;;6130519;23;20021;-89
2022/05/14 14:31:05;;;;;;;22.48;4.88;;;;;;;;;;6106826;23;20017;-88
2022/05/14 14:33:32;;;;;;;32.17;5.97;;;;;;;;;;6132114;23;20083;-88
2022/05/14 14:35:58;;;;;;;22.23;4.57;;;;;;;;;;6132625;23;20014;-90
2022/05/14 14:38:50;;;;;;;19.58;4.40;;;;;;;;;;6106912;23;20040;-88
2022/05/14 14:41:20;;;;;;;;;;;;;;;;;;6127608;23;20056;-90
2022/05/14 14:43:48;;;;;;;21.02;4.65;;;;;;;;;;6132940;23;19935;-89
2022/05/14 14:46:14;;;;;;;26.10;7.72;;;;;;;;;;6110136;23;20161;-89
2022/05/14 14:52:18;;;;;;;30.38;12.02;;;;;;;;;;6056134;23;20352;-88
2022/05/14 14:54:56;;;;;;;27.08;5.90;;;;;;;;;;6019899;23;20025;-90
2022/05/14 14:57:22;;;;;;;20.60;5.55;;;;;;;;;;6131184;23;20356;-89
2022/05/14 14:59:49;;;;;;;27.30;6.35;;;;;;;;;;6133072;23;20009;-90
2022/05/14 15:05:28;;;;;;;17.83;4.80;;;;;;;;;;6154910;23;20020;-89
2022/05/14 15:08:00;;;;;;;22.27;4.95;;;;;;;;;;6130966;23;20044;-90
2022/05/14 15:10:27;;;;;;;19.98;4.60;;;;;;;;;;6133622;23;20017;-89
2022/05/14 15:12:54;;;;;;;16.52;4.47;;;;;;;;;;6105508;23;20076;-89
2022/05/14 15:15:23;;;;;;;23.27;4.40;;;;;;;;;;6104669;23;20787;-90
2022/05/14 15:18:11;;;;;;;25.20;4.97;;;;;;;;;;6106194;23;20013;-88
2022/05/14 15:20:38;;;;;;;20.17;4.57;;;;;;;;;;6133787;23;20020;-90
2022/05/14 15:23:04;;;;;;;26.42;6.25;;;;;;;;;;6131374;23;20013;-89
2022/05/14 15:25:30;;;;;;;36.95;20.02;;;;;;;;;;6104986;23;20013;-92
2022/05/14 15:27:56;;;;;;;21.50;5.70;;;;;;;;;;6130002;23;20084;-88
2022/05/14 15:30:25;;;;;;;17.75;4.43;;;;;;;;;;6107287;23;20099;-88
2022/05/14 15:32:52;;;;;;;22.30;4.65;;;;;;;;;;6110044;23;20028;-88
2022/05/14 15:35:19;;;;;;;20.95;5.28;;;;;;;;;;6131995;23;20017;-90
2022/05/14 15:37:49;;;;;;;51.83;22.92;;;;;;;;;;6132043;23;20115;-89
2022/05/14 15:40:15;;;;;;;26.20;5.07;;;;;;;;;;6155760;23;20650;-89
2022/05/14 15:42:48;;;;;;;25.08;5.40;;;;;;;;;;6129641;23;20092;-88
2022/05/14 15:45:24;;;;;;;24.05;5.75;;;;;;;;;;6130611;23;20013;-86
2022/05/14 15:47:51;;;;;;;23.40;5.30;;;;;;;;;;6130114;23;20017;-88
2022/05/14 15:50:18;;;;;;;22.80;5.10;;;;;;;;;;6130588;23;20013;-89
2022/05/14 15:52:45;;;;;;;23.20;4.70;;;;;;;;;;6130333;23;20168;-88
2022/05/14 15:55:17;;;;;;;25.33;5.63;;;;;;;;;;6155830;23;20383;-89
2022/05/14 15:57:43;;;;;;;24.08;5.32;;;;;;;;;;6130483;23;20107;-89
2022/05/14 16:00:11;;;;;;;23.52;4.72;;;;;;;;;;6129029;23;20020;-88
2022/05/14 16:02:38;;;;;;;26.10;5.28;;;;;;;;;;6131031;23;20017;-88
2022/05/14 16:05:07;;;;;;;28.25;5.55;;;;;;;;;;6107016;23;20020;-89
2022/05/14 16:07:37;;;;;;;22.40;5.05;;;;;;;;;;6129825;23;20023;-90
2022/05/14 16:15:55;;;;;;;28.05;5.38;;;;;;;;;;6155598;23;20024;-93
2022/05/14 16:18:31;;;;;;;23.35;5.20;;;;;;;;;;6109029;23;20009;-88
2022/05/14 16:21:01;;;;;;;24.42;5.68;;;;;;;;;;6128773;23;20025;-89
2022/05/14 16:23:30;;;;;;;23.25;5.03;;;;;;;;;;6105025;23;20013;-89
2022/05/14 16:25:59;;;;;;;28.38;6.25;;;;;;;;;;6129016;23;20091;-88
2022/05/14 16:28:27;;;;;;;26.73;5.53;;;;;;;;;;6103918;23;20028;-90
2022/05/14 16:30:54;;;;;;;24.05;5.13;;;;;;;;;;6129794;23;20032;-88
2022/05/14 16:33:20;;;;;;;24.58;5.45;;;;;;;;;;6128405;23;20025;-89
2022/05/14 16:35:46;;;;;;;29.55;5.50;;;;;;;;;;6131349;23;20017;-90
2022/05/14 16:38:13;;;;;;;26.38;5.40;;;;;;;;;;6130773;23;20037;-89
2022/05/14 16:40:40;;;;;;;25.83;5.80;;;;;;;;;;6130926;23;20020;-90
2022/05/14 16:43:09;;;;;;;21.75;5.00;;;;;;;;;;6130762;23;20013;-90
2022/05/14 16:46:08;;;;;;;29.00;6.18;;;;;;;;;;6103059;23;20044;-88
2022/05/14 16:48:34;;;;;;;21.98;5.00;;;;;;;;;;6101162;23;20017;-89
2022/05/14 16:51:29;;;;;;;25.20;5.68;;;;;;;;;;6130280;23;20028;-89
2022/05/14 16:53:58;;;;;;;26.40;5.05;;;;;;;;;;6108461;23;20021;-91
2022/05/14 16:56:24;;;;;;;27.73;5.10;;;;;;;;;;6132042;23;20017;-90
2022/05/14 16:58:52;;;;;;;22.90;5.07;;;;;;;;;;6105217;23;20017;-90
2022/05/14 17:01:31;;;;;;;20.98;5.10;;;;;;;;;;6105891;23;20009;-89
2022/05/14 17:03:58;;;;;;;25.27;5.13;;;;;;;;;;6102519;23;20056;-89
2022/05/14 17:09:28;;;;;;;25.30;5.32;;;;;;;;;;6049318;23;20018;-90
2022/05/14 17:11:57;;;;;;;27.00;6.05;;;;;;;;;;6019788;23;20018;-90
2022/05/14 17:14:24;;;;;;;35.08;5.60;;;;;;;;;;6062989;23;20013;-92
2022/05/14 17:16:59;;;;;;;26.83;5.57;;;;;;;;;;6106933;23;20024;-90
2022/05/14 17:19:28;;;;;;;22.75;5.72;;;;;;;;;;6130843;23;20048;-89
2022/05/14 17:22:23;;;;;;;20.70;4.88;;;;;;;;;;6132022;23;20072;-91
2022/05/14 17:24:55;;;;;;;25.17;5.15;;;;;;;;;;6133718;23;20013;-89
2022/05/14 17:27:57;;;;;;;23.00;5.13;;;;;;;;;;6133074;23;20044;-90
2022/05/14 17:30:25;;;;;;;29.02;6.20;;;;;;;;;;6069836;23;20028;-89
2022/05/14 17:32:55;;;;;;;26.05;5.82;;;;;;;;;;6131091;23;20512;-89
2022/05/14 17:35:22;;;;;;;28.10;5.78;;;;;;;;;;6107531;23;20040;-90
2022/05/14 17:40:33;;;;;;;21.80;5.13;;;;;;;;;;6156410;23;20663;-88
2022/05/14 17:43:00;;;;;;;46.35;6.28;;;;;;;;;;6132347;23;20017;-89
2022/05/14 17:45:35;;;;;;;26.17;5.47;;;;;;;;;;6130068;23;20093;-89
2022/05/14 17:48:03;;;;;;;22.40;5.22;;;;;;;;;;6130623;23;20024;-91
2022/05/14 17:50:30;;;;;;;21.65;5.00;;;;;;;;;;6129829;23;20016;-89
2022/05/14 17:52:56;;;;;;;27.98;5.60;;;;;;;;;;6131152;23;20106;-91
2022/05/14 17:55:24;;;;;;;29.63;6.00;;;;;;;;;;6130114;23;20025;-88
2022/05/14 17:57:55;;;;;;;18.00;4.63;;;;;;;;;;6133646;23;20021;-89
2022/05/14 18:00:42;;;;;;;25.88;5.13;;;;;;;;;;6131976;23;20009;-91
2022/05/14 18:03:11;;;;;;;21.38;5.35;;;;;;;;;;6129370;23;20009;-89
2022/05/14 18:05:40;;;;;;;26.13;5.72;;;;;;;;;;6132801;23;20013;-88
2022/05/14 18:08:06;;;;;;;28.83;5.65;;;;;;;;;;6134569;23;20112;-88
2022/05/14 18:11:40;;;;;;;26.48;5.15;;;;;;;;;;6132420;23;20661;-89
2022/05/14 18:13:21;;;;;;;23.27;5.50;;;;;;;;;;6134871;23;20017;-89
2022/05/14 18:15:48;;;;;;;23.05;6.28;;;;;;;;;;6144038;23;20070;-90
2022/05/14 18:18:14;;;;;;;33.95;6.93;;;;;;;;;;6133286;23;20009;-92
2022/05/14 18:20:41;;;;;;;26.08;5.68;;;;;;;;;;6118984;23;20017;-89
2022/05/14 18:23:06;;;;;;;29.60;5.93;;;19.90;83.00;;;;;;6110393;23;20044;-89
2022/05/14 18:25:34;;;;;;;29.67;6.03;;;;;;;;;;6130048;23;20017;-89
2022/05/14 18:28:02;;;;;;;26.75;5.95;;;;;;;;;;6129902;23;20016;-89
2022/05/14 18:30:34;;;;;;;30.83;6.10;;;;;;;;;;6131052;23;20009;-91
2022/05/14 18:33:05;;;;;;;29.23;6.32;;;;;;;;;;6132063;23;20045;-90
2022/05/14 18:35:37;;;;;;;35.50;6.85;;;;;;;;;;6132931;23;20442;-90
2022/05/14 18:38:06;;;;;;;27.70;6.40;;;;;;;;;;6132829;23;20147;-89
2022/05/14 18:40:32;;;;;;;26.27;6.07;;;;;;;;;;6133507;23;20240;-89
2022/05/14 18:43:01;;;;;;;35.72;6.47;;;;;;;;;;6108176;23;20063;-88
2022/05/14 18:45:30;;;;;;;32.22;5.78;;;;;;;;;;6132259;23;20856;-89
2022/05/14 18:47:56;;;;;;;32.15;7.10;;;;;;;;;;6110310;23;20012;-88
2022/05/14 18:50:25;;;;;;;34.47;6.47;;;;;;;;;;6108373;23;20020;-88
2022/05/14 18:52:54;;;;;;;24.05;5.70;;;;;;;;;;6110611;23;20013;-89
2022/05/14 18:55:20;;;;;;;26.25;5.43;;;;;;;;;;6109389;23;20045;-89
2022/05/14 18:57:47;;;;;;;25.92;5.85;;;;;;;;;;6111794;23;20044;-89
2022/05/14 19:00:14;;;;;;;27.15;6.70;;;;;;;;;;6107786;23;20020;-87
2022/05/14 19:02:41;;;;;;;29.73;6.65;;;;;;;;;;6134407;23;20041;-90
2022/05/14 19:07:52;;;;;;;26.42;5.72;;;;;;;;;;6160055;23;20059;-88
2022/05/14 19:10:19;;;;;;;29.80;6.90;;;;;;;;;;6108331;23;20013;-88
2022/05/14 19:12:45;;;;;;;34.28;6.90;;;;;;;;;;6135639;23;20021;-90
2022/05/14 19:15:12;;;;;;;29.30;6.35;;;;;;;;;;6111473;23;20043;-87
2022/05/14 19:17:38;;;;;;;37.60;7.75;;;;;;;;;;6112277;23;20024;-88
2022/05/14 19:20:10;;;;;;;32.55;10.68;;;;;;;;;;6133048;23;20017;-89
2022/05/14 19:22:36;;;;;;;29.33;7.63;;;;;;;;;;6157074;23;20013;-88
2022/05/14 19:25:03;;;;;;;36.13;8.25;;;;;;;;;;6135343;23;20017;-91
2022/05/14 19:27:31;;;;;;;28.30;7.18;;;;;;;;;;6132357;23;20013;-88
2022/05/14 19:29:57;;;;;;;29.65;7.80;;;;;;;;;;6131580;23;20672;-88
2022/05/14 19:32:24;;;;;;;31.73;7.20;;;;;;;;;;6134345;23;20116;-90
2022/05/14 19:34:53;;;;;;;31.02;9.30;;;;;;;;;;6110064;23;20021;-89
2022/05/14 19:37:28;;;;;;;34.42;9.15;;;;;;;;;;6107391;23;20115;-91
2022/05/14 19:39:56;;;;;;;35.42;7.38;;;;;;;;;;6131074;23;20017;-90
2022/05/14 19:42:37;;;;;;;31.75;7.60;;;;;;;;;;6136746;23;20016;-89
2022/05/14 19:45:07;;;;;;;34.35;7.32;;;;;;;;;;6131754;23;20013;-89
2022/05/14 19:47:33;;;;;;;31.02;6.60;;;;;;;;;;6129756;23;20071;-90
2022/05/14 19:50:01;;;;;;;35.83;5.90;;;;;;;;;;6131300;23;20021;-89
2022/05/14 19:52:28;;;;;;;30.40;6.57;;;;;;;;;;6132196;23;20059;-89
2022/05/14 19:54:54;;;;;;;32.97;6.90;;;;;;;;;;6130704;23;20017;-89
2022/05/14 19:57:21;;;;;;;29.35;6.45;;;;;;;;;;6108621;23;20631;-89
2022/05/14 19:59:48;;;;;;;30.33;6.30;;;;;;;;;;6106660;23;20013;-88
2022/05/14 20:02:14;;;;;;;32.67;5.97;;;;;;;;;;6133438;23;20049;-89
2022/05/14 20:04:40;;;;;;;34.72;6.85;;;;;;;;;;6107444;23;20745;-89
2022/05/14 20:07:06;;;;;;;31.33;6.43;;;;;;;;;;6102576;23;20012;-88
2022/05/14 20:09:33;;;;;;;33.88;7.70;;;;;;;;;;6107534;23;20068;-87
2022/05/14 20:11:59;;;;;;;37.63;6.63;;;;;;;;;;6131595;23;20024;-89
2022/05/14 20:14:26;;;;;;;35.90;6.53;;;;;;;;;;6131346;23;20025;-89
2022/05/14 20:22:23;;;;;;;31.08;6.22;;;;;;;;;;6133572;23;20752;-87
2022/05/14 20:24:50;;;;;;;28.52;6.80;;;;;;;;;;6128665;23;20020;-88
2022/05/14 20:27:16;;;;;;;28.38;6.70;;;;;;;;;;6130320;23;20017;-88
2022/05/14 20:29:43;;;;;;;34.97;6.30;;;;;;;;;;6128224;23;20362;-87
2022/05/14 20:32:09;;;;;;;32.53;6.30;;;;;;;;;;6105390;23;20079;-89
2022/05/14 20:34:36;;;;;;;27.30;5.85;;;;;;;;;;6130858;23;20021;-89
2022/05/14 20:37:02;;;;;;;37.58;6.18;;;;;;;;;;6105470;23;20017;-87
2022/05/14 20:39:28;;;;;;;33.28;7.00;;;;;;;;;;6129042;23;20020;-88
2022/05/14 20:41:54;;;;;;;35.05;6.65;;;;;;;;;;6106411;23;20013;-90
2022/05/14 20:44:20;;;;;;;26.55;5.55;;;;;;;;;;6107858;23;20096;-89
2022/05/14 20:46:46;;;;;;;35.13;6.50;;;;;;;;;;6106817;23;20048;-89
2022/05/14 20:49:12;;;;;;;36.15;7.35;;;;;;;;;;6105747;23;20017;-88
2022/05/14 20:51:38;;;;;;;27.42;6.13;;;;;;;;;;6107673;23;20017;-88
2022/05/14 20:54:05;;;;;;;30.33;6.90;;;;;;;;;;6107392;23;20409;-88
2022/05/14 20:56:32;;;;;;;29.15;6.70;;;;;;;;;;6128968;23;20095;-89
2022/05/14 20:58:58;;;;;;;33.88;6.15;;;;;;;;;;6158117;23;20113;-88
2022/05/14 21:01:24;;;;;;;33.15;6.97;;;;;;;;;;6112276;23;20013;-89
2022/05/14 21:03:51;;;;;;;26.65;6.65;;;;;;;;;;6133732;23;20016;-88
2022/05/14 21:06:17;;;;;;;27.55;5.95;;;;;;;;;;6110698;23;20020;-88
2022/05/14 21:08:44;;;;;;;33.40;7.32;;;;;;;;;;6135266;23;20017;-88
2022/05/14 21:11:10;;;;;;;33.20;6.65;;;;;;;;;;6135399;23;20080;-88
2022/05/14 21:13:38;;;;;;;29.42;6.75;;;;;;;;;;6134828;23;20303;-88
2022/05/14 21:16:04;;;;;;;36.03;7.15;;;;;;;;;;6135809;23;20075;-89
2022/05/14 21:18:30;;;;;;;31.50;6.18;;;;;;;;;;6111666;23;20017;-89
2022/05/14 21:20:57;;;;;;;35.53;6.47;;;;;;;;;;6111136;23;20049;-88
2022/05/14 21:23:23;;;;;;;34.70;7.25;;;;;;;;;;6110753;23;20013;-89
2022/05/14 21:25:49;;;;;;;33.63;6.68;;;;;;;;;;6137074;23;20013;-89
2022/05/14 21:28:15;;;;;;;28.10;6.38;;;;;;;;;;6111714;23;20021;-89
2022/05/14 21:30:41;;;;;;;34.00;6.72;;;;;;;;;;6113601;23;20016;-89
2022/05/14 21:33:08;;;;;;;35.47;6.70;;;;;;;;;;6114078;23;20059;-88
2022/05/14 21:38:18;;;;;;;31.17;6.80;;;;;;;;;;6144250;23;20017;-89
2022/05/14 21:40:44;;;;;;;36.83;7.75;;;;;;;;;;6116985;23;20055;-88
2022/05/14 21:43:18;;;;;;;30.90;8.05;;;;;;;;;;6113353;23;20024;-87
2022/05/14 21:45:45;;;;;;;38.00;7.45;;;;;;;;;;6137175;23;20013;-89
2022/05/14 21:48:11;;;;;;;33.88;7.18;;;;;;;;;;6131998;23;20017;-90
2022/05/14 21:50:39;;;;;;;30.98;7.25;;;;;;;;;;6112872;23;20013;-89
2022/05/14 21:53:06;;;;;;;30.85;6.68;;;;;;;;;;6136919;23;20048;-88
2022/05/14 21:55:34;;;;;;;36.83;9.20;;;;;;;;;;6133077;23;20695;-87
2022/05/14 21:58:01;;;;;;;34.13;7.65;;;;;;;;;;6131643;23;20017;-88
2022/05/14 22:00:27;;;;;;;39.17;7.32;;;;;;;;;;6135349;23;20013;-89
2022/05/14 22:02:57;;;;;;;37.13;7.18;;;;;;;;;;6136754;23;20041;-88
2022/05/14 22:05:28;;;;;;;31.33;7.15;;;;;;;;;;6134207;23;20013;-87
2022/05/14 22:07:55;;;;;;;35.88;7.13;;;;;;;;;;6131959;23;20020;-89
2022/05/14 22:10:21;;;;;;;43.03;7.18;;;;;;;;;;6110938;23;20151;-87
2022/05/14 22:12:48;;;;;;;34.08;7.90;;;;;;;;;;6136292;23;20024;-87
2022/05/14 22:15:14;;;;;;;33.58;7.32;;;;;;;;;;6135989;23;20628;-87
2022/05/14 22:17:41;;;;;;;40.63;7.75;;;;;;;;;;6137181;23;20009;-88
2022/05/14 22:20:09;;;;;;;35.80;7.65;;;;;;;;;;6135963;23;20509;-89
2022/05/14 22:22:35;;;;;;;34.45;7.40;;;;;;;;;;6159695;23;20013;-90
2022/05/14 22:25:02;;;;;;;30.73;6.88;;;;;;;;;;6135636;23;20013;-88
2022/05/14 22:27:28;;;;;;;34.65;6.75;;;;;;;;;;6137823;23;20022;-88
2022/05/14 22:29:54;;;;;;;42.67;7.10;;;;;;;;;;6113133;23;20055;-88